createdAt,value
2023-03-16T00:01:10.375Z,20.88
2023-03-16T00:03:41.795Z,19.25
2023-03-16T00:06:12.515Z,22.25
2023-03-16T00:08:44.142Z,21.08
2023-03-16T00:11:14.795Z,27.05
2023-03-16T00:13:47.302Z,21.45
2023-03-16T00:16:17.829Z,26.55
2023-03-16T00:18:48.558Z,17.58
2023-03-16T00:21:19.194Z,22.08
2023-03-16T00:23:49.778Z,23.50
2023-03-16T00:26:20.907Z,20.20
2023-03-16T00:28:55.235Z,19.02
2023-03-16T00:31:26.178Z,20.42
2023-03-16T00:33:56.960Z,28.95
2023-03-16T00:36:27.514Z,22.20
2023-03-16T00:38:58.070Z,19.75
2023-03-16T00:41:28.657Z,21.67
2023-03-16T00:44:02.030Z,24.23
2023-03-16T00:46:32.632Z,20.20
2023-03-16T00:49:03.812Z,25.23
2023-03-16T00:51:34.880Z,20.40
2023-03-16T00:54:06.480Z,25.08
2023-03-16T00:56:37.035Z,24.05
2023-03-16T00:59:09.782Z,21.25
2023-03-16T01:01:40.414Z,19.98
2023-03-16T01:04:11.869Z,16.60
2023-03-16T01:06:42.778Z,18.30
2023-03-16T01:09:15.709Z,19.92
2023-03-16T01:11:46.236Z,26.40
2023-03-16T01:14:18.589Z,22.95
2023-03-16T01:16:49.143Z,21.42
2023-03-16T01:19:19.631Z,17.58
2023-03-16T01:21:50.217Z,22.25
2023-03-16T01:24:20.861Z,24.90
2023-03-16T01:26:51.562Z,27.13
2023-03-16T01:29:27.175Z,22.55
2023-03-16T01:31:57.905Z,30.20
2023-03-16T01:34:28.522Z,21.52
2023-03-16T01:36:59.342Z,27.58
2023-03-16T01:39:30.175Z,27.45
2023-03-16T01:42:00.655Z,24.42
2023-03-16T01:44:35.951Z,22.35
2023-03-16T01:47:06.507Z,22.38
2023-03-16T01:49:39.518Z,22.63
2023-03-16T01:52:15.387Z,23.63
2023-03-16T01:54:49.382Z,31.45
2023-03-16T01:57:22.889Z,34.38
2023-03-16T01:59:57.741Z,37.60
2023-03-16T02:02:33.302Z,33.70
2023-03-16T02:05:07.044Z,27.27
2023-03-16T02:07:40.964Z,26.80
2023-03-16T02:10:13.998Z,28.48
2023-03-16T02:12:45.588Z,27.58
2023-03-16T02:15:18.106Z,34.13
2023-03-16T02:17:50.044Z,25.30
2023-03-16T02:20:36.099Z,22.67
2023-03-16T02:23:08.658Z,29.90
2023-03-16T02:25:49.185Z,25.17
2023-03-16T02:28:28.094Z,21.58
2023-03-16T02:31:01.094Z,29.38
2023-03-16T02:33:33.695Z,30.10
2023-03-16T02:36:04.590Z,27.58
2023-03-16T02:38:35.184Z,28.30
2023-03-16T02:41:14.670Z,26.13
2023-03-16T02:43:50.777Z,27.27
2023-03-16T02:46:24.530Z,22.75
2023-03-16T02:49:03.844Z,18.55
2023-03-16T02:51:34.629Z,27.67
2023-03-16T02:54:05.366Z,16.45
2023-03-16T02:56:35.872Z,18.40
2023-03-16T02:59:06.431Z,18.85
2023-03-16T03:01:39.004Z,15.38
2023-03-16T03:04:09.978Z,15.57
2023-03-16T03:06:40.885Z,11.95
2023-03-16T03:09:12.512Z,22.23
2023-03-16T03:11:43.353Z,17.27
2023-03-16T03:14:14.052Z,17.25
2023-03-16T03:16:47.535Z,13.35
2023-03-16T03:19:18.104Z,16.10
2023-03-16T03:21:48.665Z,11.07
2023-03-16T03:24:19.672Z,14.10
2023-03-16T03:26:50.223Z,17.80
2023-03-16T03:29:21.609Z,12.85
2023-03-16T03:31:53.925Z,12.73
2023-03-16T03:34:27.508Z,17.85
2023-03-16T03:36:58.261Z,16.75
2023-03-16T03:39:28.837Z,9.00
2023-03-16T03:41:59.440Z,21.27
2023-03-16T03:44:30.007Z,15.02
2023-03-16T03:47:02.361Z,16.20
2023-03-16T03:49:33.235Z,15.35
2023-03-16T03:52:05.949Z,15.32
2023-03-16T03:54:36.720Z,19.10
2023-03-16T03:57:08.119Z,12.38
2023-03-16T03:59:43.577Z,18.38
2023-03-16T04:02:16.747Z,16.33
2023-03-16T04:04:47.732Z,16.35
2023-03-16T04:07:18.392Z,10.57
2023-03-16T04:09:48.932Z,13.43
2023-03-16T04:12:19.492Z,13.63
2023-03-16T04:14:50.076Z,15.63
2023-03-16T04:17:22.222Z,19.48
2023-03-16T04:19:52.857Z,15.20
2023-03-16T04:22:24.200Z,18.90
2023-03-16T04:24:54.820Z,13.45
2023-03-16T04:27:25.401Z,15.40
2023-03-16T04:29:59.635Z,22.73
2023-03-16T04:32:32.596Z,24.15
2023-03-16T04:35:03.116Z,24.73
2023-03-16T04:37:35.330Z,19.33
2023-03-16T04:40:12.656Z,20.15
2023-03-16T04:42:43.175Z,20.65
2023-03-16T04:45:15.049Z,17.25
2023-03-16T04:47:47.146Z,19.33
2023-03-16T04:50:17.716Z,27.40
2023-03-16T04:52:48.289Z,17.05
2023-03-16T04:55:18.883Z,23.05
2023-03-16T04:57:49.396Z,30.38
2023-03-16T05:00:21.517Z,20.60
2023-03-16T05:02:54.285Z,29.40
2023-03-16T05:05:25.100Z,22.10
2023-03-16T05:07:55.551Z,19.45
2023-03-16T05:10:26.319Z,32.55
2023-03-16T05:12:57.632Z,25.85
2023-03-16T05:15:28.547Z,19.30
2023-03-16T05:18:00.732Z,29.25
2023-03-16T05:20:31.329Z,21.00
2023-03-16T05:23:01.891Z,22.63
2023-03-16T05:25:32.375Z,27.50
2023-03-16T05:28:03.033Z,26.98
2023-03-16T05:30:33.648Z,25.23
2023-03-16T05:33:05.948Z,28.70
2023-03-16T05:35:36.745Z,22.77
2023-03-16T05:38:10.731Z,25.75
2023-03-16T05:40:41.591Z,30.48
2023-03-16T05:43:12.068Z,27.85
2023-03-16T05:45:42.436Z,22.92
2023-03-16T05:48:14.696Z,28.60
2023-03-16T05:50:45.153Z,40.80
2023-03-16T05:53:16.259Z,34.67
2023-03-16T05:55:46.746Z,21.88
2023-03-16T05:58:17.230Z,31.70
2023-03-16T06:00:47.710Z,20.92
2023-03-16T06:03:19.836Z,27.92
2023-03-16T06:05:51.007Z,25.23
2023-03-16T06:08:21.456Z,32.80
2023-03-16T06:10:51.896Z,28.63
2023-03-16T06:13:22.444Z,23.02
2023-03-16T06:15:53.363Z,26.60
2023-03-16T06:18:25.468Z,25.88
2023-03-16T06:20:56.072Z,25.23
2023-03-16T06:23:26.517Z,24.55
2023-03-16T06:25:57.141Z,22.63
2023-03-16T06:28:28.239Z,23.42
2023-03-16T06:30:59.871Z,25.50
2023-03-16T06:33:32.409Z,23.45
2023-03-16T06:36:03.500Z,25.60
2023-03-16T06:38:34.502Z,30.27
2023-03-16T06:41:04.918Z,29.20
2023-03-16T06:43:35.406Z,25.23
2023-03-16T06:46:05.888Z,28.80
2023-03-16T06:48:38.046Z,21.38
2023-03-16T06:51:09.501Z,28.73
2023-03-16T06:53:40.054Z,27.02
2023-03-16T06:56:11.057Z,28.75
2023-03-16T06:58:41.574Z,30.35
2023-03-16T07:01:13.338Z,29.15
2023-03-16T07:03:45.433Z,35.17
2023-03-16T07:06:15.870Z,21.30
2023-03-16T07:08:46.429Z,23.77
2023-03-16T07:11:17.079Z,17.48
2023-03-16T07:13:47.712Z,19.27
2023-03-16T07:16:18.280Z,16.63
2023-03-16T07:18:50.250Z,19.88
2023-03-16T07:21:21.003Z,14.98
2023-03-16T07:23:51.517Z,15.27
2023-03-16T07:26:22.156Z,16.27
2023-03-16T07:28:52.733Z,13.43
2023-03-16T07:31:23.408Z,12.32
2023-03-16T07:33:55.692Z,9.23
2023-03-16T07:36:26.751Z,9.90
2023-03-16T07:38:57.386Z,10.55
2023-03-16T07:41:28.048Z,8.30
2023-03-16T07:43:59.249Z,6.80
2023-03-16T07:46:29.864Z,11.25
2023-03-16T07:49:02.213Z,10.73
2023-03-16T07:51:32.668Z,9.00
2023-03-16T07:54:03.093Z,10.55
2023-03-16T07:56:47.444Z,6.57
2023-03-16T07:59:20.954Z,4.80
2023-03-16T08:01:51.859Z,3.85
2023-03-16T08:04:28.937Z,4.20
2023-03-16T08:07:01.942Z,6.63
2023-03-16T08:09:32.365Z,9.20
2023-03-16T08:12:02.910Z,3.90
2023-03-16T08:14:36.433Z,8.63
2023-03-16T08:17:18.374Z,5.32
2023-03-16T08:19:50.472Z,3.55
2023-03-16T08:22:21.892Z,3.92
2023-03-16T08:24:53.276Z,5.82
2023-03-16T08:27:23.782Z,5.78
2023-03-16T08:29:58.583Z,7.47
2023-03-16T08:32:29.340Z,8.15
2023-03-16T08:35:01.525Z,9.80
2023-03-16T08:37:32.200Z,11.60
2023-03-16T08:40:06.238Z,13.27
2023-03-16T08:42:41.446Z,21.40
2023-03-16T08:45:14.403Z,11.38
2023-03-16T08:47:45.156Z,15.75
2023-03-16T08:50:17.589Z,15.38
2023-03-16T08:52:51.142Z,17.25
2023-03-16T08:55:21.838Z,14.65
2023-03-16T08:57:52.845Z,21.10
2023-03-16T09:00:24.431Z,17.95
2023-03-16T09:02:55.669Z,20.15
2023-03-16T09:05:29.385Z,18.38
2023-03-16T09:08:07.033Z,17.20
2023-03-16T09:10:39.958Z,17.15
2023-03-16T09:13:13.300Z,18.30
2023-03-16T09:15:43.861Z,21.27
2023-03-16T09:18:14.601Z,20.67
2023-03-16T09:20:48.630Z,20.15
2023-03-16T09:23:19.588Z,22.48
2023-03-16T09:25:55.661Z,19.77
2023-03-16T09:28:26.247Z,20.30
2023-03-16T09:30:57.666Z,18.60
2023-03-16T09:33:29.720Z,23.02
2023-03-16T09:36:07.175Z,24.77
2023-03-16T09:38:38.303Z,19.50
2023-03-16T09:41:12.417Z,24.08
2023-03-16T09:44:02.927Z,22.45
2023-03-16T09:46:39.638Z,22.23
2023-03-16T09:49:12.394Z,21.40
2023-03-16T09:51:52.212Z,22.42
2023-03-16T09:54:34.345Z,17.70
2023-03-16T09:57:09.545Z,22.23
2023-03-16T09:59:40.025Z,28.48
2023-03-16T10:02:32.420Z,70.40
2023-03-16T10:05:10.664Z,53.97
2023-03-16T10:07:53.170Z,26.48
2023-03-16T10:10:43.202Z,27.05
2023-03-16T10:15:51.991Z,25.65
2023-03-16T10:18:26.042Z,28.05
2023-03-16T10:20:57.586Z,29.00
2023-03-16T10:23:30.231Z,30.67
2023-03-16T10:26:01.454Z,25.48
2023-03-16T10:28:34.643Z,21.33
2023-03-16T10:31:05.838Z,25.90
2023-03-16T10:33:38.573Z,24.83
2023-03-16T10:36:35.494Z,25.25
2023-03-16T10:39:34.347Z,27.77
2023-03-16T10:42:04.868Z,28.48
2023-03-16T10:44:42.490Z,26.85
2023-03-16T10:47:25.776Z,23.15
2023-03-16T10:49:56.552Z,24.08
2023-03-16T10:52:34.213Z,26.10
2023-03-16T10:55:13.872Z,23.33
2023-03-16T10:57:52.298Z,32.08
2023-03-16T11:00:32.931Z,28.83
2023-03-16T11:03:03.833Z,41.67
2023-03-16T11:05:37.067Z,55.20
2023-03-16T11:08:14.521Z,69.03
2023-03-16T11:10:56.013Z,27.77
2023-03-16T11:13:35.949Z,51.67
2023-03-16T11:16:20.166Z,53.65
2023-03-16T11:19:15.837Z,51.58
2023-03-16T11:22:01.376Z,34.45
2023-03-16T11:24:42.728Z,35.92
2023-03-16T11:27:49.772Z,24.48
2023-03-16T11:30:31.822Z,25.83
2023-03-16T11:33:05.106Z,25.08
2023-03-16T11:35:59.226Z,24.80
2023-03-16T11:38:37.101Z,24.70
2023-03-16T11:41:10.189Z,23.83
2023-03-16T11:43:58.049Z,31.10
2023-03-16T11:46:31.783Z,52.25
2023-03-16T11:49:33.363Z,30.08
2023-03-16T11:52:16.351Z,22.92
2023-03-16T11:55:04.088Z,22.90
2023-03-16T11:57:51.743Z,21.13
2023-03-16T12:00:33.539Z,23.42
2023-03-16T12:03:41.126Z,22.02
2023-03-16T12:06:25.758Z,24.80
2023-03-16T12:09:15.395Z,22.10
2023-03-16T12:11:57.644Z,24.65
2023-03-16T12:14:33.083Z,25.90
2023-03-16T12:17:17.294Z,24.60
2023-03-16T12:19:52.950Z,24.67
2023-03-16T12:22:28.538Z,22.70
2023-03-16T12:24:59.129Z,24.67
2023-03-16T12:27:40.174Z,25.38
2023-03-16T12:30:31.144Z,31.42
2023-03-16T12:33:30.723Z,32.25
2023-03-16T12:36:09.159Z,26.23
2023-03-16T12:38:48.500Z,23.90
2023-03-16T12:41:34.586Z,30.40
2023-03-16T12:44:18.295Z,22.88
2023-03-16T12:46:58.577Z,23.63
2023-03-16T12:49:34.913Z,24.05
2023-03-16T12:52:08.188Z,22.73
2023-03-16T12:54:41.235Z,23.10
2023-03-16T12:57:17.727Z,26.20
2023-03-16T12:59:51.494Z,19.98
2023-03-16T13:02:30.591Z,24.08
2023-03-16T13:05:05.835Z,20.30
2023-03-16T13:07:44.411Z,21.23
2023-03-16T13:10:17.500Z,18.35
2023-03-16T13:12:52.407Z,21.63
2023-03-16T13:15:41.336Z,20.20
2023-03-16T13:18:28.590Z,18.40
2023-03-16T13:21:03.293Z,21.58
2023-03-16T13:24:04.633Z,20.33
2023-03-16T13:26:44.255Z,17.75
2023-03-16T13:29:26.815Z,18.73
2023-03-16T13:32:00.001Z,17.83
2023-03-16T13:34:36.113Z,19.30
2023-03-16T13:37:18.160Z,17.48
2023-03-16T13:39:56.066Z,16.80
2023-03-16T13:42:28.210Z,13.40
2023-03-16T13:45:00.175Z,20.77
2023-03-16T13:47:31.525Z,19.83
2023-03-16T13:50:03.466Z,20.33
2023-03-16T13:52:38.401Z,17.38
2023-03-16T13:55:37.380Z,19.83
2023-03-16T13:58:08.923Z,16.08
2023-03-16T14:00:40.565Z,16.50
2023-03-16T14:03:17.040Z,16.90
2023-03-16T14:05:48.497Z,21.73
2023-03-16T14:08:23.494Z,16.77
2023-03-16T14:11:00.618Z,21.90
2023-03-16T14:13:39.144Z,16.13
2023-03-16T14:16:17.515Z,19.67
2023-03-16T14:18:52.868Z,19.00
2023-03-16T14:21:26.582Z,21.65
2023-03-16T14:24:02.905Z,17.42
2023-03-16T14:26:43.852Z,22.73
2023-03-16T14:29:33.229Z,15.30
2023-03-16T14:32:04.209Z,16.60
2023-03-16T14:34:38.011Z,17.63
2023-03-16T14:37:10.607Z,23.13
2023-03-16T14:39:43.269Z,23.05
2023-03-16T14:42:22.341Z,26.65
2023-03-16T14:44:53.234Z,17.95
2023-03-16T14:47:27.666Z,20.55
2023-03-16T14:50:00.210Z,17.33
2023-03-16T14:52:33.852Z,20.88
2023-03-16T14:55:18.399Z,17.02
2023-03-16T14:57:50.331Z,17.17
2023-03-16T15:00:22.901Z,13.30
2023-03-16T15:03:03.981Z,12.35
2023-03-16T15:05:38.024Z,16.20
2023-03-16T15:08:10.413Z,16.38
2023-03-16T15:10:42.713Z,13.63
2023-03-16T15:13:35.372Z,15.63
2023-03-16T15:16:06.695Z,11.40
2023-03-16T15:18:38.486Z,14.25
2023-03-16T15:21:14.687Z,13.73
2023-03-16T15:23:46.327Z,12.55
2023-03-16T15:26:24.462Z,13.07
2023-03-16T15:28:55.505Z,13.35
2023-03-16T15:31:26.305Z,15.55
2023-03-16T15:33:56.804Z,45.65
2023-03-16T15:36:27.563Z,35.00
2023-03-16T15:38:58.394Z,31.95
2023-03-16T15:41:41.453Z,40.20
2023-03-16T15:44:17.612Z,22.77
2023-03-16T15:46:48.854Z,17.17
2023-03-16T15:49:22.825Z,15.60
2023-03-16T15:51:53.703Z,14.40
2023-03-16T15:54:24.617Z,14.63
2023-03-16T15:57:01.436Z,16.25
2023-03-16T15:59:38.934Z,13.65
2023-03-16T16:02:31.195Z,14.90
2023-03-16T16:05:03.208Z,16.77
2023-03-16T16:07:33.953Z,18.75
2023-03-16T16:10:06.288Z,17.92
2023-03-16T16:12:39.243Z,12.50
2023-03-16T16:15:22.707Z,19.13
2023-03-16T16:18:19.426Z,15.85
2023-03-16T16:20:47.328Z,14.07
2023-03-16T16:23:18.945Z,17.13
2023-03-16T16:25:50.518Z,17.10
2023-03-16T16:28:25.389Z,14.18
2023-03-16T16:30:57.059Z,14.55
2023-03-16T16:33:31.147Z,13.27
2023-03-16T16:36:03.426Z,11.30
2023-03-16T16:38:35.119Z,13.05
2023-03-16T16:41:11.137Z,13.48
2023-03-16T16:43:45.624Z,15.00
2023-03-16T16:46:18.220Z,15.43
2023-03-16T16:48:51.438Z,16.88
2023-03-16T16:51:25.752Z,14.40
2023-03-16T16:53:57.970Z,16.55
2023-03-16T16:56:32.070Z,13.77
2023-03-16T16:59:16.308Z,16.35
2023-03-16T17:01:51.684Z,12.27
2023-03-16T17:04:26.583Z,11.48
2023-03-16T17:06:59.723Z,13.18
2023-03-16T17:09:32.769Z,11.93
2023-03-16T17:12:04.268Z,13.50
2023-03-16T17:14:36.847Z,18.25
2023-03-16T17:17:16.969Z,14.43
2023-03-16T17:22:25.352Z,16.27
2023-03-16T17:24:56.462Z,14.20
2023-03-16T17:27:32.665Z,11.50
2023-03-16T17:30:05.337Z,14.77
2023-03-16T17:32:38.901Z,16.45
2023-03-16T17:35:22.596Z,13.32
2023-03-16T17:37:53.139Z,15.57
2023-03-16T17:40:27.770Z,14.13
2023-03-16T17:42:58.425Z,15.98
2023-03-16T17:45:31.461Z,12.77
2023-03-16T17:48:02.185Z,15.82
2023-03-16T17:50:35.953Z,14.63
2023-03-16T17:53:06.612Z,11.52
2023-03-16T17:55:37.551Z,18.67
2023-03-16T17:58:08.688Z,13.43
2023-03-16T18:00:43.219Z,13.60
2023-03-16T18:03:16.206Z,14.30
2023-03-16T18:05:49.376Z,16.00
2023-03-16T18:08:22.628Z,12.00
2023-03-16T18:10:59.269Z,13.27
2023-03-16T18:13:33.461Z,13.93
2023-03-16T18:16:07.062Z,13.43
2023-03-16T18:18:40.885Z,13.07
2023-03-16T18:21:19.633Z,14.52
2023-03-16T18:23:50.333Z,15.00
2023-03-16T18:26:21.407Z,10.40
2023-03-16T18:28:54.319Z,13.07
2023-03-16T18:31:28.100Z,16.85
2023-03-16T18:34:08.636Z,15.88
2023-03-16T18:36:40.671Z,23.67
2023-03-16T18:39:21.249Z,22.45
2023-03-16T18:41:53.504Z,16.50
2023-03-16T18:44:26.670Z,19.35
2023-03-16T18:47:04.040Z,21.70
2023-03-16T18:49:37.375Z,26.05
2023-03-16T18:52:19.767Z,25.35
2023-03-16T18:54:54.154Z,33.03
2023-03-16T18:57:25.931Z,24.05
2023-03-16T18:59:56.965Z,30.73
2023-03-16T19:02:38.155Z,26.48
2023-03-16T19:05:13.951Z,23.98
2023-03-16T19:07:47.221Z,24.08
2023-03-16T19:10:25.375Z,32.53
2023-03-16T19:12:56.334Z,28.70
2023-03-16T19:15:29.071Z,35.55
2023-03-16T19:18:01.950Z,38.88
2023-03-16T19:20:35.098Z,43.53
2023-03-16T19:23:08.980Z,43.17
2023-03-16T19:25:42.242Z,36.35
2023-03-16T19:28:17.966Z,39.63
2023-03-16T19:30:48.495Z,38.65
2023-03-16T19:33:26.575Z,46.42
2023-03-16T19:35:59.619Z,45.67
2023-03-16T19:38:30.616Z,35.55
2023-03-16T19:41:03.358Z,36.58
2023-03-16T19:43:34.002Z,43.15
2023-03-16T19:46:04.809Z,34.38
2023-03-16T19:48:39.943Z,35.65
2023-03-16T19:51:13.480Z,33.22
2023-03-16T19:53:44.607Z,33.67
2023-03-16T19:56:20.622Z,33.38
2023-03-16T19:59:04.607Z,32.65
2023-03-16T20:01:35.993Z,28.30
2023-03-16T20:04:08.856Z,24.35
2023-03-16T20:06:39.386Z,29.08
2023-03-16T20:09:09.878Z,23.40
2023-03-16T20:11:40.449Z,24.67
2023-03-16T20:14:22.771Z,26.90
2023-03-16T20:16:53.916Z,25.17
2023-03-16T20:19:26.085Z,26.42
2023-03-16T20:21:56.547Z,16.73
2023-03-16T20:24:29.644Z,21.65
2023-03-16T20:27:00.503Z,16.85
2023-03-16T20:29:33.557Z,16.83
2023-03-16T20:32:05.576Z,16.25
2023-03-16T20:34:37.823Z,18.42
2023-03-16T20:37:22.740Z,17.83
2023-03-16T20:39:53.825Z,27.10
2023-03-16T20:42:28.644Z,32.40
2023-03-16T20:44:59.242Z,32.22
2023-03-16T20:47:30.330Z,30.05
2023-03-16T20:50:02.437Z,31.08
2023-03-16T20:52:33.174Z,30.20
2023-03-16T20:55:03.724Z,24.00
2023-03-16T20:57:34.644Z,33.90
2023-03-16T21:00:06.347Z,26.45
2023-03-16T21:02:37.446Z,29.98
2023-03-16T21:05:10.647Z,31.92
2023-03-16T21:07:41.413Z,38.38
2023-03-16T21:10:13.687Z,39.53
2023-03-16T21:12:47.267Z,41.30
2023-03-16T21:15:26.051Z,42.45
2023-03-16T21:18:00.355Z,44.85
2023-03-16T21:20:34.710Z,35.72
2023-03-16T21:23:05.823Z,43.42
2023-03-16T21:25:40.302Z,47.80
2023-03-16T21:28:13.652Z,39.33
2023-03-16T21:30:48.444Z,38.65
2023-03-16T21:33:24.538Z,48.53
2023-03-16T21:35:57.110Z,62.85
2023-03-16T21:38:27.911Z,43.33
2023-03-16T21:40:58.838Z,50.15
2023-03-16T21:43:29.516Z,45.17
2023-03-16T21:46:00.446Z,41.67
2023-03-16T21:48:38.297Z,41.13
2023-03-16T21:51:17.043Z,39.95
2023-03-16T21:53:48.762Z,45.20
2023-03-16T21:56:21.458Z,48.65
2023-03-16T21:58:53.065Z,43.38
2023-03-16T22:01:26.450Z,41.13
2023-03-16T22:03:59.714Z,44.80
2023-03-16T22:06:32.128Z,46.05
2023-03-16T22:09:03.864Z,42.45
2023-03-16T22:11:34.600Z,45.28
2023-03-16T22:14:05.594Z,44.58
2023-03-16T22:16:38.827Z,45.17
2023-03-16T22:19:15.370Z,43.17
2023-03-16T22:21:49.292Z,43.30
2023-03-16T22:24:23.189Z,39.10
2023-03-16T22:26:54.549Z,36.30
2023-03-16T22:29:27.184Z,40.65
2023-03-16T22:32:00.568Z,38.38
2023-03-16T22:34:34.505Z,35.58
2023-03-16T22:37:07.608Z,39.08
2023-03-16T22:39:40.472Z,33.40
2023-03-16T22:42:29.623Z,33.42
2023-03-16T22:45:00.397Z,35.45
2023-03-16T22:47:33.794Z,28.17
2023-03-16T22:50:04.428Z,31.88
2023-03-16T22:52:38.011Z,24.40
2023-03-16T22:55:09.979Z,17.48
2023-03-16T22:57:40.580Z,12.77
2023-03-16T23:00:14.936Z,13.05
2023-03-16T23:02:45.872Z,11.80
2023-03-16T23:05:25.416Z,11.73
2023-03-16T23:07:58.668Z,12.13
2023-03-16T23:10:30.912Z,10.90
2023-03-16T23:13:02.976Z,14.30
2023-03-16T23:26:38.261Z,16.50
2023-03-16T23:29:08.849Z,14.65
2023-03-16T23:31:40.162Z,15.63
2023-03-16T23:34:13.728Z,11.48
2023-03-16T23:36:44.237Z,11.23
2023-03-16T23:39:16.351Z,15.38
2023-03-16T23:41:49.386Z,25.42
2023-03-16T23:44:22.311Z,20.63
2023-03-16T23:46:53.344Z,23.85
2023-03-16T23:49:26.933Z,23.23
2023-03-16T23:52:00.463Z,25.55
2023-03-16T23:54:34.397Z,23.10
2023-03-16T23:57:04.849Z,23.25
2023-03-16T23:59:35.441Z,16.63
